createdAt,value
2022-10-20T00:01:45.191Z,40.70
2022-10-20T00:04:15.273Z,41.60
2022-10-20T00:06:45.295Z,40.50
2022-10-20T00:09:15.318Z,41.20
2022-10-20T00:11:47.172Z,40.70
2022-10-20T00:14:17.163Z,41.00
2022-10-20T00:16:47.234Z,40.80
2022-10-20T00:19:17.332Z,41.10
2022-10-20T00:21:47.354Z,41.50
2022-10-20T00:24:17.460Z,41.10
2022-10-20T00:26:47.538Z,41.10
2022-10-20T00:31:53.275Z,41.00
2022-10-20T00:34:23.376Z,41.10
2022-10-20T00:36:53.570Z,41.00
2022-10-20T00:39:25.006Z,41.20
2022-10-20T00:41:56.552Z,40.70
2022-10-20T00:44:52.301Z,41.20
2022-10-20T00:47:48.352Z,40.90
2022-10-20T00:50:33.313Z,41.10
2022-10-20T00:53:03.400Z,41.50
2022-10-20T00:55:34.179Z,41.30
2022-10-20T00:58:04.418Z,41.30
2022-10-20T01:00:34.457Z,41.10
2022-10-20T01:03:05.114Z,41.00
2022-10-20T01:05:35.492Z,41.30
2022-10-20T01:08:05.657Z,41.00
2022-10-20T01:10:41.405Z,41.30
2022-10-20T01:13:26.641Z,41.30
2022-10-20T01:16:20.287Z,41.20
2022-10-20T01:19:27.662Z,41.60
2022-10-20T01:22:27.072Z,42.40
2022-10-20T01:25:06.654Z,42.30
2022-10-20T01:27:47.561Z,42.30
2022-10-20T01:30:20.080Z,42.50
2022-10-20T01:33:21.289Z,42.30
2022-10-20T01:35:56.272Z,42.10
2022-10-20T01:38:43.232Z,42.10
2022-10-20T01:41:37.514Z,41.90
2022-10-20T01:44:10.308Z,41.90
2022-10-20T01:46:41.409Z,42.00
2022-10-20T01:49:14.683Z,41.70
2022-10-20T01:51:45.044Z,41.90
2022-10-20T01:54:28.951Z,42.00
2022-10-20T01:57:06.746Z,41.80
2022-10-20T02:00:17.749Z,41.70
2022-10-20T02:03:06.224Z,41.70
2022-10-20T02:05:54.891Z,42.20
2022-10-20T02:08:51.166Z,42.30
2022-10-20T02:11:32.230Z,42.00
2022-10-20T02:14:02.256Z,41.90
2022-10-20T02:16:35.125Z,41.90
2022-10-20T02:19:05.149Z,42.20
2022-10-20T02:21:35.137Z,42.10
2022-10-20T02:24:07.317Z,42.00
2022-10-20T02:26:38.496Z,41.90
2022-10-20T02:29:17.340Z,41.40
2022-10-20T02:31:48.553Z,41.30
2022-10-20T02:34:20.043Z,41.90
2022-10-20T02:36:50.295Z,42.00
2022-10-20T02:39:25.143Z,41.70
2022-10-20T02:41:55.927Z,41.80
2022-10-20T02:44:26.153Z,41.70
2022-10-20T02:46:56.412Z,42.00
2022-10-20T02:49:26.516Z,42.20
2022-10-20T02:51:56.572Z,41.80
2022-10-20T02:54:28.678Z,41.90
2022-10-20T02:56:58.816Z,42.20
2022-10-20T02:59:28.788Z,42.40
2022-10-20T03:01:58.891Z,42.70
2022-10-20T03:04:29.049Z,42.10
2022-10-20T03:06:59.013Z,42.20
2022-10-20T03:09:29.025Z,42.00
2022-10-20T03:11:59.877Z,42.20
2022-10-20T03:14:31.185Z,42.70
2022-10-20T03:17:01.516Z,42.00
2022-10-20T03:19:31.562Z,42.60
2022-10-20T03:22:01.604Z,42.00
2022-10-20T03:24:31.597Z,42.00
2022-10-20T03:27:01.634Z,41.80
2022-10-20T03:29:31.656Z,41.60
2022-10-20T03:32:01.654Z,41.90
2022-10-20T03:34:31.613Z,41.70
2022-10-20T03:37:02.250Z,41.80
2022-10-20T03:39:32.577Z,42.00
2022-10-20T03:42:02.692Z,41.90
2022-10-20T03:44:32.675Z,42.00
2022-10-20T03:47:02.716Z,41.70
2022-10-20T03:49:34.552Z,41.90
2022-10-20T03:52:04.737Z,42.00
2022-10-20T03:54:34.749Z,42.00
2022-10-20T03:57:06.977Z,41.80
2022-10-20T03:59:38.171Z,42.00
2022-10-20T04:02:08.288Z,41.50
2022-10-20T04:04:38.313Z,41.70
2022-10-20T04:07:08.334Z,41.80
2022-10-20T04:09:38.321Z,41.60
2022-10-20T04:12:08.319Z,41.70
2022-10-20T04:14:38.293Z,41.60
2022-10-20T04:17:08.310Z,41.60
2022-10-20T04:19:38.315Z,41.60
2022-10-20T04:22:08.366Z,41.40
2022-10-20T04:24:38.412Z,41.40
2022-10-20T04:27:08.421Z,41.20
2022-10-20T04:29:38.629Z,40.90
2022-10-20T04:32:08.710Z,41.40
2022-10-20T04:34:38.742Z,41.40
2022-10-20T04:37:08.967Z,41.00
2022-10-20T04:39:39.243Z,41.40
2022-10-20T04:42:09.288Z,41.20
2022-10-20T04:44:39.251Z,41.30
2022-10-20T04:47:09.248Z,41.80
2022-10-20T04:49:39.240Z,41.30
2022-10-20T04:52:09.252Z,41.20
2022-10-20T04:54:39.418Z,41.30
2022-10-20T04:57:10.965Z,41.30
2022-10-20T04:59:40.939Z,41.30
2022-10-20T05:02:12.530Z,41.60
2022-10-20T05:04:42.614Z,41.30
2022-10-20T05:07:14.364Z,41.30
2022-10-20T05:09:44.520Z,41.00
2022-10-20T05:14:58.511Z,41.00
2022-10-20T05:17:33.647Z,41.40
2022-10-20T05:20:05.119Z,41.00
2022-10-20T05:22:37.350Z,41.20
2022-10-20T05:25:31.504Z,41.00
2022-10-20T05:27:58.151Z,41.10
2022-10-20T05:30:28.253Z,40.90
2022-10-20T05:32:58.396Z,40.80
2022-10-20T05:35:31.299Z,40.90
2022-10-20T05:38:01.475Z,40.80
2022-10-20T05:40:31.687Z,41.00
2022-10-20T05:43:02.140Z,41.20
2022-10-20T05:45:35.231Z,41.90
2022-10-20T05:48:04.929Z,37.90
2022-10-20T05:50:35.741Z,35.80
2022-10-20T05:53:06.460Z,37.40
2022-10-20T05:55:36.440Z,39.40
2022-10-20T05:58:09.069Z,40.00
2022-10-20T06:00:43.529Z,40.30
2022-10-20T06:03:16.181Z,41.20
2022-10-20T06:05:49.250Z,41.50
2022-10-20T06:08:19.298Z,41.90
2022-10-20T06:10:49.369Z,41.50
2022-10-20T06:13:19.731Z,42.20
2022-10-20T06:15:50.385Z,42.30
2022-10-20T06:18:21.193Z,42.10
2022-10-20T06:20:56.624Z,42.70
2022-10-20T06:23:27.305Z,42.60
2022-10-20T06:25:57.555Z,43.00
2022-10-20T06:28:27.664Z,43.00
2022-10-20T06:30:57.646Z,42.80
2022-10-20T06:33:28.434Z,43.40
2022-10-20T06:36:05.425Z,43.40
2022-10-20T06:38:35.713Z,43.50
2022-10-20T06:41:06.371Z,44.10
2022-10-20T06:43:36.692Z,44.70
2022-10-20T06:46:08.975Z,43.50
2022-10-20T06:48:39.226Z,44.00
2022-10-20T06:51:11.908Z,42.80
2022-10-20T06:53:46.542Z,41.70
2022-10-20T06:56:21.658Z,40.50
2022-10-20T06:58:53.277Z,40.20
2022-10-20T07:01:24.914Z,40.70
2022-10-20T07:03:57.255Z,40.80
2022-10-20T07:06:34.685Z,40.70
2022-10-20T07:09:07.442Z,41.20
2022-10-20T07:11:37.715Z,41.80
2022-10-20T07:14:08.647Z,42.20
2022-10-20T07:16:38.970Z,41.90
2022-10-20T07:19:09.469Z,42.40
2022-10-20T07:21:41.569Z,41.80
2022-10-20T07:24:15.753Z,42.30
2022-10-20T07:26:46.003Z,43.00
2022-10-20T07:29:16.306Z,42.60
2022-10-20T07:31:47.955Z,43.20
2022-10-20T07:34:25.567Z,43.10
2022-10-20T07:36:57.043Z,43.60
2022-10-20T07:39:27.689Z,43.50
2022-10-20T07:41:58.016Z,43.40
2022-10-20T07:44:29.141Z,43.80
2022-10-20T07:46:59.753Z,43.20
2022-10-20T07:49:45.332Z,43.50
2022-10-20T07:52:17.554Z,43.70
2022-10-20T07:54:48.867Z,43.50
2022-10-20T07:57:19.033Z,42.90
2022-10-20T07:59:49.107Z,43.20
2022-10-20T08:02:19.831Z,43.40
2022-10-20T08:04:52.959Z,43.40
2022-10-20T08:07:23.114Z,43.10
2022-10-20T08:09:53.314Z,42.70
2022-10-20T08:12:23.355Z,42.90
2022-10-20T08:14:54.804Z,43.10
2022-10-20T08:17:25.492Z,42.90
2022-10-20T08:20:06.143Z,42.30
2022-10-20T08:22:36.923Z,42.90
2022-10-20T08:25:08.500Z,42.70
2022-10-20T08:27:38.772Z,42.80
2022-10-20T08:30:25.621Z,42.60
2022-10-20T08:32:55.869Z,42.70
2022-10-20T08:35:26.427Z,42.40
2022-10-20T08:37:56.819Z,42.30
2022-10-20T08:40:29.697Z,42.50
2022-10-20T08:42:59.208Z,42.20
2022-10-20T08:45:33.644Z,42.20
2022-10-20T08:48:06.620Z,42.60
2022-10-20T08:50:36.791Z,42.10
2022-10-20T08:53:06.815Z,42.00
2022-10-20T08:55:37.903Z,42.20
2022-10-20T08:58:12.972Z,42.50
2022-10-20T09:00:43.222Z,42.10
2022-10-20T09:03:25.225Z,42.60
2022-10-20T09:05:57.832Z,42.00
2022-10-20T09:08:29.657Z,42.30
2022-10-20T09:11:00.824Z,43.20
2022-10-20T09:13:32.645Z,42.40
2022-10-20T09:16:07.759Z,41.80
2022-10-20T09:18:37.879Z,42.30
2022-10-20T09:21:18.408Z,42.40
2022-10-20T09:23:53.450Z,42.80
2022-10-20T09:26:44.978Z,42.00
2022-10-20T09:29:21.196Z,42.10
2022-10-20T09:31:56.048Z,42.30
2022-10-20T09:34:33.309Z,42.10
2022-10-20T09:37:06.451Z,42.10
2022-10-20T09:39:54.182Z,42.20
2022-10-20T09:42:29.675Z,42.20
2022-10-20T09:45:00.783Z,42.50
2022-10-20T09:47:32.904Z,42.50
2022-10-20T09:50:04.499Z,42.90
2022-10-20T09:52:41.862Z,43.10
2022-10-20T09:55:37.261Z,43.20
2022-10-20T09:58:07.498Z,43.10
2022-10-20T10:00:45.642Z,42.40
2022-10-20T10:03:23.235Z,43.00
2022-10-20T10:05:56.345Z,43.30
2022-10-20T10:08:31.722Z,43.00
2022-10-20T10:11:15.384Z,43.00
2022-10-20T10:13:49.666Z,42.90
2022-10-20T10:16:21.630Z,43.20
2022-10-20T10:19:04.020Z,43.50
2022-10-20T10:21:55.048Z,42.90
2022-10-20T10:24:42.149Z,43.20
2022-10-20T10:27:34.495Z,43.20
2022-10-20T10:30:28.814Z,43.30
2022-10-20T10:33:01.425Z,43.70
2022-10-20T10:35:42.566Z,43.40
2022-10-20T10:38:13.043Z,43.50
2022-10-20T10:40:58.353Z,43.30
2022-10-20T10:43:54.591Z,43.30
2022-10-20T10:46:38.211Z,43.50
2022-10-20T10:50:02.323Z,43.20
2022-10-20T10:52:43.909Z,43.60
2022-10-20T10:55:48.630Z,44.40
2022-10-20T10:58:28.496Z,44.20
2022-10-20T11:01:17.309Z,43.20
2022-10-20T11:04:05.930Z,43.20
2022-10-20T11:07:03.221Z,43.30
2022-10-20T11:09:50.390Z,43.00
2022-10-20T11:12:46.681Z,42.60
2022-10-20T11:15:17.241Z,43.10
2022-10-20T11:17:55.015Z,43.30
2022-10-20T11:21:01.379Z,43.60
2022-10-20T11:24:24.480Z,43.20
2022-10-20T11:26:58.601Z,43.20
2022-10-20T11:29:44.021Z,43.30
2022-10-20T11:32:22.905Z,43.80
2022-10-20T11:34:57.048Z,43.70
2022-10-20T11:37:33.819Z,43.60
2022-10-20T11:40:12.729Z,43.70
2022-10-20T11:42:58.052Z,43.00
2022-10-20T11:45:55.334Z,43.30
2022-10-20T11:48:32.423Z,43.80
2022-10-20T11:51:32.792Z,43.70
2022-10-20T11:54:28.072Z,43.50
2022-10-20T11:57:13.170Z,43.60
2022-10-20T12:00:21.250Z,44.10
2022-10-20T12:03:12.023Z,43.80
2022-10-20T12:06:02.624Z,44.20
2022-10-20T12:08:47.462Z,43.40
2022-10-20T12:11:32.203Z,44.00
2022-10-20T12:14:19.179Z,44.80
2022-10-20T12:16:55.562Z,44.50
2022-10-20T12:19:27.984Z,46.30
2022-10-20T12:22:22.313Z,48.00
2022-10-20T12:24:55.244Z,50.40
2022-10-20T12:27:26.473Z,49.70
2022-10-20T12:30:01.212Z,49.60
2022-10-20T12:32:50.007Z,50.10
2022-10-20T12:35:25.806Z,49.10
2022-10-20T12:38:05.431Z,49.70
2022-10-20T12:40:58.927Z,49.10
2022-10-20T12:43:52.968Z,49.40
2022-10-20T12:46:29.429Z,49.60
2022-10-20T12:49:06.682Z,49.20
2022-10-20T12:51:52.502Z,49.20
2022-10-20T12:54:47.679Z,49.00
2022-10-20T12:57:45.201Z,49.10
2022-10-20T13:00:18.242Z,49.90
2022-10-20T13:03:14.592Z,50.20
2022-10-20T13:05:49.297Z,49.80
2022-10-20T13:08:26.732Z,50.00
2022-10-20T13:10:56.999Z,49.90
2022-10-20T13:13:41.241Z,49.90
2022-10-20T13:16:16.218Z,49.80
2022-10-20T13:18:47.398Z,50.00
2022-10-20T13:21:23.804Z,50.10
2022-10-20T13:24:05.331Z,50.00
2022-10-20T13:26:51.695Z,49.60
2022-10-20T13:29:24.713Z,50.30
2022-10-20T13:32:24.008Z,49.80
2022-10-20T13:35:29.484Z,49.90
2022-10-20T13:38:03.875Z,50.60
2022-10-20T13:40:58.187Z,49.60
2022-10-20T13:43:43.789Z,49.70
2022-10-20T13:46:27.958Z,50.70
2022-10-20T13:49:31.657Z,50.00
2022-10-20T13:52:07.411Z,50.50
2022-10-20T13:54:38.419Z,50.80
2022-10-20T13:57:08.449Z,50.40
2022-10-20T13:59:40.689Z,51.20
2022-10-20T14:02:28.304Z,50.60
2022-10-20T14:05:10.171Z,50.50
2022-10-20T14:07:42.266Z,50.70
2022-10-20T14:10:27.077Z,51.30
2022-10-20T14:12:57.683Z,50.50
2022-10-20T14:15:35.629Z,51.00
2022-10-20T14:18:10.491Z,51.00
2022-10-20T14:20:42.820Z,51.10
2022-10-20T14:23:12.997Z,50.90
2022-10-20T14:25:43.008Z,51.60
2022-10-20T14:28:15.593Z,51.10
2022-10-20T14:30:45.805Z,50.70
2022-10-20T14:33:17.336Z,51.10
2022-10-20T14:35:52.490Z,50.30
2022-10-20T14:38:30.593Z,50.90
2022-10-20T14:41:00.725Z,49.80
2022-10-20T14:43:42.953Z,49.80
2022-10-20T14:46:14.890Z,50.30
2022-10-20T14:48:52.333Z,49.60
2022-10-20T14:51:34.196Z,49.80
2022-10-20T14:54:25.732Z,49.60
2022-10-20T14:57:00.768Z,49.90
2022-10-20T14:59:32.427Z,50.40
2022-10-20T15:02:14.479Z,50.90
2022-10-20T15:04:45.769Z,50.80
2022-10-20T15:07:28.308Z,51.00
2022-10-20T15:10:13.774Z,50.90
2022-10-20T15:12:50.199Z,50.40
2022-10-20T15:15:23.110Z,51.20
2022-10-20T15:17:53.452Z,50.60
2022-10-20T15:20:36.485Z,50.50
2022-10-20T15:23:09.483Z,51.10
2022-10-20T15:25:57.223Z,50.50
2022-10-20T15:28:33.312Z,51.00
2022-10-20T15:31:04.219Z,51.10
2022-10-20T15:33:34.255Z,51.20
2022-10-20T15:36:04.368Z,50.80
2022-10-20T15:38:34.392Z,51.50
2022-10-20T15:41:04.404Z,51.20
2022-10-20T15:43:34.425Z,51.70
2022-10-20T15:46:04.486Z,51.40
2022-10-20T15:48:34.515Z,51.30
2022-10-20T15:51:04.698Z,50.70
2022-10-20T15:53:34.729Z,51.60
2022-10-20T15:56:04.799Z,51.70
2022-10-20T15:58:38.830Z,51.50
2022-10-20T16:01:10.853Z,51.60
2022-10-20T16:03:44.450Z,52.20
2022-10-20T16:06:15.044Z,51.30
2022-10-20T16:08:45.822Z,51.40
2022-10-20T16:11:16.866Z,51.70
2022-10-20T16:13:46.968Z,52.20
2022-10-20T16:16:19.138Z,51.70
2022-10-20T16:18:49.184Z,52.10
2022-10-20T16:21:19.167Z,51.90
2022-10-20T16:23:49.398Z,53.00
2022-10-20T16:26:19.437Z,51.80
2022-10-20T16:28:49.622Z,52.60
2022-10-20T16:31:19.733Z,51.70
2022-10-20T16:33:50.016Z,51.80
2022-10-20T16:36:20.204Z,51.80
2022-10-20T16:38:50.280Z,52.30
2022-10-20T16:41:20.274Z,52.30
2022-10-20T16:43:50.333Z,52.90
2022-10-20T16:46:20.340Z,52.80
2022-10-20T16:48:50.314Z,52.50
2022-10-20T16:51:20.473Z,53.30
2022-10-20T16:53:50.983Z,52.70
2022-10-20T16:56:21.193Z,51.80
2022-10-20T16:58:51.411Z,51.80
2022-10-20T17:01:22.770Z,52.40
2022-10-20T17:03:54.210Z,52.70
2022-10-20T17:06:26.364Z,52.70
2022-10-20T17:08:57.013Z,52.30
2022-10-20T17:11:29.690Z,53.10
2022-10-20T17:14:00.031Z,53.00
2022-10-20T17:16:31.889Z,53.60
2022-10-20T17:19:02.823Z,53.30
2022-10-20T17:21:33.605Z,52.80
2022-10-20T17:24:04.162Z,52.70
2022-10-20T17:26:34.643Z,53.20
2022-10-20T17:29:04.587Z,53.50
2022-10-20T17:31:34.832Z,53.60
2022-10-20T17:34:05.059Z,53.80
2022-10-20T17:36:35.264Z,53.40
2022-10-20T17:39:09.725Z,53.40
2022-10-20T17:41:40.949Z,53.10
2022-10-20T17:44:11.392Z,54.00
2022-10-20T17:46:43.355Z,54.30
2022-10-20T17:49:13.323Z,53.40
2022-10-20T17:51:45.250Z,53.30
2022-10-20T17:54:15.410Z,53.30
2022-10-20T17:56:45.920Z,53.70
2022-10-20T17:59:16.125Z,53.60
2022-10-20T18:01:46.552Z,54.20
2022-10-20T18:04:18.024Z,53.70
2022-10-20T18:06:48.095Z,53.50
2022-10-20T18:09:19.219Z,53.20
2022-10-20T18:11:52.769Z,53.60
2022-10-20T18:14:22.928Z,54.20
2022-10-20T18:16:52.958Z,53.20
2022-10-20T18:19:22.994Z,54.10
2022-10-20T18:21:53.043Z,53.50
2022-10-20T18:24:23.058Z,54.10
2022-10-20T18:26:53.493Z,54.20
2022-10-20T18:29:23.448Z,54.30
2022-10-20T18:31:53.863Z,53.70
2022-10-20T18:34:24.094Z,54.00
2022-10-20T18:36:55.652Z,54.30
2022-10-20T18:39:25.887Z,55.30
2022-10-20T18:41:56.675Z,54.50
2022-10-20T18:46:58.440Z,54.70
2022-10-20T18:49:29.060Z,54.50
2022-10-20T18:51:59.492Z,54.20
2022-10-20T18:54:29.849Z,54.80
2022-10-20T18:57:00.422Z,55.20
2022-10-20T18:59:30.380Z,54.90
2022-10-20T19:02:00.550Z,54.10
2022-10-20T19:04:30.516Z,54.30
2022-10-20T19:07:00.555Z,54.60
2022-10-20T19:09:30.855Z,54.30
2022-10-20T19:12:03.559Z,54.80
2022-10-20T19:14:35.860Z,54.10
2022-10-20T19:17:05.854Z,54.90
2022-10-20T19:19:35.828Z,54.80
2022-10-20T19:22:06.405Z,54.90
2022-10-20T19:24:40.858Z,54.80
2022-10-20T19:27:27.511Z,55.30
2022-10-20T19:29:57.689Z,54.70
2022-10-20T19:32:27.975Z,54.70
2022-10-20T19:34:58.368Z,55.30
2022-10-20T19:37:28.933Z,55.50
2022-10-20T19:39:58.904Z,55.00
2022-10-20T19:42:29.321Z,55.50
2022-10-20T19:44:59.623Z,56.00
2022-10-20T19:47:29.574Z,55.40
2022-10-20T19:49:59.662Z,56.10
2022-10-20T19:52:29.636Z,55.50
2022-10-20T19:54:59.970Z,55.80
2022-10-20T19:57:31.076Z,55.00
2022-10-20T20:00:01.105Z,55.80
2022-10-20T20:02:34.274Z,55.10
2022-10-20T20:05:08.196Z,55.70
2022-10-20T20:07:38.811Z,55.80
2022-10-20T20:10:11.423Z,55.50
2022-10-20T20:12:42.049Z,56.00
2022-10-20T20:15:12.580Z,55.50
2022-10-20T20:17:43.593Z,55.50
2022-10-20T20:20:13.940Z,55.40
2022-10-20T20:22:44.345Z,55.20
2022-10-20T20:25:14.470Z,55.70
2022-10-20T20:27:45.017Z,55.50
2022-10-20T20:30:29.465Z,55.70
2022-10-20T20:33:13.809Z,55.60
2022-10-20T20:35:43.783Z,55.70
2022-10-20T20:38:13.774Z,56.00
2022-10-20T20:40:47.783Z,56.80
2022-10-20T20:43:18.801Z,55.80
2022-10-20T20:45:48.954Z,56.10
2022-10-20T20:48:19.364Z,56.80
2022-10-20T20:50:56.145Z,56.90
2022-10-20T20:53:27.138Z,56.30
2022-10-20T20:56:01.780Z,56.30
2022-10-20T20:58:32.248Z,56.60
2022-10-20T21:01:06.848Z,56.60
2022-10-20T21:03:37.169Z,56.10
2022-10-20T21:06:11.507Z,56.90
2022-10-20T21:08:42.507Z,56.20
2022-10-20T21:11:20.473Z,56.10
2022-10-20T21:13:51.192Z,56.30
2022-10-20T21:16:24.875Z,56.50
2022-10-20T21:18:59.445Z,56.20
2022-10-20T21:21:30.971Z,56.70
2022-10-20T21:24:01.513Z,56.10
2022-10-20T21:26:31.692Z,57.00
2022-10-20T21:29:01.696Z,56.60
2022-10-20T21:31:31.886Z,56.50
2022-10-20T21:34:05.040Z,56.90
2022-10-20T21:36:39.095Z,57.30
2022-10-20T21:39:17.026Z,56.50
2022-10-20T21:41:47.662Z,56.70
2022-10-20T21:44:17.647Z,56.70
2022-10-20T21:46:51.967Z,56.40
2022-10-20T21:49:26.346Z,56.70
2022-10-20T21:51:57.846Z,57.50
2022-10-20T21:54:29.310Z,57.40
2022-10-20T21:56:59.416Z,57.20
2022-10-20T21:59:31.157Z,56.30
2022-10-20T22:02:02.477Z,56.50
2022-10-20T22:04:32.734Z,57.50
2022-10-20T22:07:02.742Z,56.80
2022-10-20T22:09:32.797Z,56.90
2022-10-20T22:12:02.795Z,56.90
2022-10-20T22:14:32.934Z,57.30
2022-10-20T22:17:02.956Z,57.30
2022-10-20T22:19:32.951Z,56.70
2022-10-20T22:22:03.030Z,56.60
2022-10-20T22:24:36.663Z,57.40
2022-10-20T22:27:15.425Z,57.20
2022-10-20T22:29:57.452Z,57.20
2022-10-20T22:32:27.644Z,57.80
2022-10-20T22:34:57.702Z,57.20
2022-10-20T22:37:27.699Z,57.70
2022-10-20T22:39:57.696Z,57.60
2022-10-20T22:42:27.723Z,57.50
2022-10-20T22:44:57.915Z,57.90
2022-10-20T22:47:27.857Z,57.70
2022-10-20T22:49:57.833Z,57.20
2022-10-20T22:52:27.800Z,57.40
2022-10-20T22:54:57.865Z,58.00
2022-10-20T22:57:27.847Z,58.40
2022-10-20T22:59:57.817Z,57.50
2022-10-20T23:02:27.897Z,57.80
2022-10-20T23:04:57.910Z,57.60
2022-10-20T23:07:27.936Z,57.10
2022-10-20T23:09:58.001Z,57.40
2022-10-20T23:12:27.955Z,57.10
2022-10-20T23:14:58.242Z,57.50
2022-10-20T23:17:28.616Z,58.50
2022-10-20T23:19:58.559Z,57.80
2022-10-20T23:22:28.531Z,57.60
2022-10-20T23:24:58.509Z,57.90
2022-10-20T23:27:28.512Z,57.80
2022-10-20T23:29:58.453Z,58.00
2022-10-20T23:32:28.423Z,57.40
2022-10-20T23:34:58.388Z,58.00
2022-10-20T23:37:28.366Z,57.50
2022-10-20T23:39:58.390Z,57.60
2022-10-20T23:42:29.089Z,57.90
2022-10-20T23:44:59.040Z,58.70
2022-10-20T23:47:29.271Z,57.40
2022-10-20T23:50:00.041Z,57.80
2022-10-20T23:52:30.094Z,58.40
2022-10-20T23:55:00.781Z,56.60
2022-10-20T23:57:30.927Z,57.70
